Accueil
METAR-TAF:

METAR-TAF

Aéroports :

Aéroport de Toulon-Hyères

Toulon, France

latitude: 43-06N, longitude: 006-09E, altitude: 3 m

Observation

Le bulletin a été fait il y a 38 minutes, à 18:00 UTC
Vent 12 kt de ouest
Température 21°C
Humidité 46%
Pression 1013 hPa
Visibilité 10 km ou plus
pas de nuages en-dessous de 1500 mètres et pas de cumulonimbus.

METAR: LFTH 071800Z AUTO 27012KT CAVOK 21/09 Q1013 BECMG 29015G25KT

Heure: 20:38 (18:38 UTC)

Prévision

Le bulletin a été fait il y a 4 heures et 38 minutes, à 14:00 UTC
Prévision valable du 07 à 15 UTC au 08 à 15 UTC
Vent 15 kt de ouest/nord-ouest avec des rafales jusqu'à 25 kt
Visibilité 10 km ou plus
pas de nuages en-dessous de 1500 mètres et pas de cumulonimbus.
Evoluant progressivement
du 08 à 05 UTC au 08 à 07 UTC
Vent 12 kt de est/sud-est

TAF: LFTH 071400Z 0715/0815 29015G25KT CAVOK BECMG 0805/0807 12012KT

Observations et prévisions météorologiques de plus de 4000 aéroports (messages METAR et TAF).

Les stations disponibles sont représentées par des disques jaunes et rouges sur la carte.

Passer la souris dessus pour voir le nom de la station.

Cliquer dessus pour voir les observations et prévisions météorologiques.

Pour changer de carte: cliquez sur les boutons verts avec une croix noire pour zoomer, sur le bouton vert avec un tiret pour effectuer un zoom arrière, ou sur les flèches vertes pour les cartes adjacentes.


METAR-TAF: